地図

経路データ

SID SEASON NUMBER BASIN SUBBASIN NAME ISO_TIME NATURE LAT LON WMO_WIND WMO_PRES WMO_AGENCY TRACK_TYPE DIST2LAND LANDFALL IFLAG USA_AGENCY USA_ATCF_ID USA_LAT USA_LON USA_RECORD USA_STATUS USA_WIND USA_PRES USA_SSHS USA_R34_NE USA_R34_SE USA_R34_SW USA_R34_NW USA_R50_NE USA_R50_SE USA_R50_SW USA_R50_NW USA_R64_NE USA_R64_SE USA_R64_SW USA_R64_NW USA_POCI USA_ROCI USA_RMW USA_EYE TOKYO_LAT TOKYO_LON TOKYO_GRADE TOKYO_WIND TOKYO_PRES TOKYO_R50_DIR TOKYO_R50_LONG TOKYO_R50_SHORT TOKYO_R30_DIR TOKYO_R30_LONG TOKYO_R30_SHORT TOKYO_LAND CMA_LAT CMA_LON CMA_CAT CMA_WIND CMA_PRES HKO_LAT HKO_LON HKO_CAT HKO_WIND HKO_PRES NEWDELHI_LAT NEWDELHI_LON NEWDELHI_GRADE NEWDELHI_WIND NEWDELHI_PRES NEWDELHI_CI NEWDELHI_DP NEWDELHI_POCI REUNION_LAT REUNION_LON REUNION_TYPE REUNION_WIND REUNION_PRES REUNION_TNUM REUNION_CI REUNION_RMW REUNION_R34_NE REUNION_R34_SE REUNION_R34_SW REUNION_R34_NW REUNION_R50_NE REUNION_R50_SE REUNION_R50_SW REUNION_R50_NW REUNION_R64_NE REUNION_R64_SE REUNION_R64_SW REUNION_R64_NW BOM_LAT BOM_LON BOM_TYPE BOM_WIND BOM_PRES BOM_TNUM BOM_CI BOM_RMW BOM_R34_NE BOM_R34_SE BOM_R34_SW BOM_R34_NW BOM_R50_NE BOM_R50_SE BOM_R50_SW BOM_R50_NW BOM_R64_NE BOM_R64_SE BOM_R64_SW BOM_R64_NW BOM_ROCI BOM_POCI BOM_EYE BOM_POS_METHOD BOM_PRES_METHOD NADI_LAT NADI_LON NADI_CAT NADI_WIND NADI_PRES WELLINGTON_LAT WELLINGTON_LON WELLINGTON_WIND WELLINGTON_PRES DS824_LAT DS824_LON DS824_STAGE DS824_WIND DS824_PRES TD9636_LAT TD9636_LON TD9636_STAGE TD9636_WIND TD9636_PRES TD9635_LAT TD9635_LON TD9635_WIND TD9635_PRES TD9635_ROCI NEUMANN_LAT NEUMANN_LON NEUMANN_CLASS NEUMANN_WIND NEUMANN_PRES MLC_LAT MLC_LON MLC_CLASS MLC_WIND MLC_PRES USA_GUST BOM_GUST BOM_GUST_PER REUNION_GUST REUNION_GUST_PER USA_SEAHGT USA_SEARAD_NE USA_SEARAD_SE USA_SEARAD_SW USA_SEARAD_NW STORM_SPEED STORM_DIR
1913361S13142 1914 63 SP EA NOT_NAMED 1913-12-27 00:00:00 TS -12.7000 141.500 main 15 15 _________O____ -1 -12.7000 141.500 TC 1 321
1913361S13142 1914 63 SP EA NOT_NAMED 1913-12-27 03:00:00 TS -12.6568 141.458 main 15 10 _________P____ -1 -12.6568 141.458 TC 1 316
1913361S13142 1914 63 SP EA NOT_NAMED 1913-12-27 06:00:00 TS -12.6141 141.417 main 21 21 _________P____ -1 -12.6141 141.417 TC 1 315
1913361S13142 1914 63 SP EA NOT_NAMED 1913-12-27 09:00:00 TS -12.5725 141.377 main 21 21 _________P____ -1 -12.5725 141.377 TC 1 317
1913361S13142 1914 63 SP EA NOT_NAMED 1913-12-27 12:00:00 TS -12.5325 141.337 main 34 34 _________P____ -1 -12.5325 141.337 TC 1 314
1913361S13142 1914 63 SP EA NOT_NAMED 1913-12-27 15:00:00 TS -12.4948 141.300 main 34 34 _________P____ -1 -12.4948 141.300 TC 1 319
1913361S13142 1914 63 SP EA NOT_NAMED 1913-12-27 18:00:00 TS -12.4597 141.264 main 34 34 _________P____ -1 -12.4597 141.264 TC 1 314
1913361S13142 1914 63 SP EA NOT_NAMED 1913-12-27 21:00:00 TS -12.4279 141.231 main 48 48 _________P____ -1 -12.4279 141.231 TC 1 319
1913361S13142 1914 63 SP EA NOT_NAMED 1913-12-28 00:00:00 TS -12.4000 141.200 main 48 48 _________O____ -1 -12.4000 141.200 TC 1 311
1913361S13142 1914 63 SP EA NOT_NAMED 1913-12-28 03:00:00 TS -12.3763 141.172 main 48 48 _________P____ -1 -12.3763 141.172 TC 1 309
1913361S13142 1914 63 SP EA NOT_NAMED 1913-12-28 06:00:00 TS -12.3565 141.147 main 58 58 _________P____ -1 -12.3565 141.147 TC 1 310
1913361S13142 1914 63 SP EA NOT_NAMED 1913-12-28 09:00:00 TS -12.3404 141.123 main 63 63 _________P____ -1 -12.3404 141.123 TC 1 301
1913361S13142 1914 63 SP EA NOT_NAMED 1913-12-28 12:00:00 TS -12.3275 141.100 main 63 63 _________P____ -1 -12.3275 141.100 TC 1 306
1913361S13142 1914 63 SP EA NOT_NAMED 1913-12-28 15:00:00 TS -12.3174 141.077 main 63 63 _________P____ -1 -12.3174 141.077 TC 0 297
1913361S13142 1914 63 SP EA NOT_NAMED 1913-12-28 18:00:00 TS -12.3097 141.053 main 63 63 _________P____ -1 -12.3097 141.053 TC 1 290
1913361S13142 1914 63 SP EA NOT_NAMED 1913-12-28 21:00:00 TS -12.3040 141.028 main 73 0 _________P____ -1 -12.3040 141.028 TC 9 83
1913361S13142 1914 63 SP EA NOT_NAMED 1913-12-28 23:00:00 TS -12.2209 141.808 main 0 0 _________PO___ -1 -12.3012 141.010 TC -11.9000 145.000 7 24 83
1913361S13142 1914 63 SP EA NOT_NAMED 1913-12-29 00:00:00 TS -12.1604 142.261 main 0 0 _________OP___ -1 -12.3000 141.000 TC -11.8811 144.783 7 8 76
1913361S13142 1914 63 SP EA NOT_NAMED 1913-12-29 03:00:00 TS -12.0962 142.325 main 0 0 _________PP___ -1 -12.2973 140.969 TC -11.8281 144.133 7 1 332
1913361S13142 1914 63 SP EA NOT_NAMED 1913-12-29 06:00:00 TS -12.0440 142.209 main 0 0 _________PP___ -1 -12.2969 140.936 TC -11.7911 143.483 7 5 277
1913361S13142 1914 63 SP EA NOT_NAMED 1913-12-29 09:00:00 TS -12.0405 141.867 main 0 0 _________PP___ -1 -12.2980 140.902 TC -11.7829 142.833 7 7 269
1913361S13142 1914 63 SP EA NOT_NAMED 1913-12-29 11:00:00 TS -12.0497 141.639 main 24 15 _________PO___ -1 -12.2993 140.877 TC -11.8000 142.400 7 7 267
1913361S13142 1914 63 SP EA NOT_NAMED 1913-12-29 12:00:00 TS -12.0583 141.524 main 24 24 _________PP___ -1 -12.3000 140.865 TC -11.8166 142.184 7 7 264
1913361S13142 1914 63 SP EA NOT_NAMED 1913-12-29 15:00:00 TS -12.0979 141.188 main 55 55 _________PP___ -1 -12.3019 140.827 TC -11.8940 141.549 7 6 262
1913361S13142 1914 63 SP EA NOT_NAMED 1913-12-29 18:00:00 TS -12.1518 140.875 main 87 87 _________PP___ -1 -12.3031 140.786 TC -12.0005 140.963 7 6 259
1913361S13142 1914 63 SP EA NOT_NAMED 1913-12-29 21:00:00 TS -12.2116 140.605 main 117 117 _________PP___ -1 -12.3027 140.744 TC -12.1204 140.465 7 5 256
1913361S13142 1914 63 SP EA NOT_NAMED 1913-12-29 23:00:00 TS -12.2506 140.457 main 124 134 _________PO___ -1 -12.3012 140.715 TC -12.2000 140.200 7 4 256
1913361S13142 1914 63 SP EA NOT_NAMED 1913-12-30 00:00:00 TS -12.2647 140.396 main 134 134 _________OP___ -1 -12.3000 140.700 TC -12.2294 140.091 7 3 255
1913361S13142 1914 63 SP EA NOT_NAMED 1913-12-30 03:00:00 TS -12.3020 140.265 main 145 145 _________PP___ -1 -12.2877 140.678 TC -12.3163 139.852 7 2 250
1913361S13142 1914 63 SP EA NOT_NAMED 1913-12-30 06:00:00 TS -12.3408 140.184 main 155 153 _________PP___ -1 -12.2727 140.656 TC -12.4088 139.712 7 2 238
1913361S13142 1914 63 SP EA NOT_NAMED 1913-12-30 09:00:00 TS -12.3862 140.133 main 164 164 _________PP___ -1 -12.2564 140.631 TC -12.5159 139.635 7 1 223
1913361S13142 1914 63 SP EA NOT_NAMED 1913-12-30 11:00:00 TS -12.4227 140.105 main 164 164 _________PO___ -1 -12.2455 140.610 TC -12.6000 139.600 7 2 219
1913361S13142 1914 63 SP EA NOT_NAMED 1913-12-30 12:00:00 TS -12.4478 140.076 main 164 163 _________PP___ -1 -12.2401 140.598 TC -12.6556 139.553 7 2 226
1913361S13142 1914 63 SP EA NOT_NAMED 1913-12-30 15:00:00 TS -12.5335 139.989 main 174 173 _________PP___ -1 -12.2250 140.553 TC -12.8420 139.426 7 2 221
1913361S13142 1914 63 SP EA NOT_NAMED 1913-12-30 18:00:00 TS -12.6242 139.918 main 184 184 _________PP___ -1 -12.2124 140.491 TC -13.0360 139.345 7 3 217
1913361S13142 1914 63 SP EA NOT_NAMED 1913-12-30 21:00:00 TS -12.7784 139.799 main 196 196 _________PP___ -1 -12.2037 140.408 TC -13.2095 139.343 7 3 211
1913361S13142 1914 63 SP EA NOT_NAMED 1913-12-30 23:00:00 TS -12.8287 139.797 bom main 196 196 ______O__PO___ -1 -12.2000 140.300 -12.2006 140.339 TC -13.3000 139.400 7 2 0
1913361S13142 1914 63 SP EA NOT_NAMED 1913-12-31 00:00:00 TS -12.8482 139.828 main 196 173 ______P__OP___ -1 -12.2044 140.338 -12.2000 140.300 TC -13.3322 139.454 7 3 106
1913361S13142 1914 63 SP EA NOT_NAMED 1913-12-31 03:00:00 NR -12.8913 140.017 main 173 142 ______P__PP___ -1 -12.2167 140.446 -12.1914 140.161 TC -13.3973 139.695 7 4 87
1913361S13142 1914 63 SP EA NOT_NAMED 1913-12-31 06:00:00 NR -12.8240 140.275 main 142 121 ______P__PP___ -1 -12.2257 140.536 -12.1848 139.995 TC -13.4223 140.015 7 5 81
1913361S13142 1914 63 SP EA NOT_NAMED 1913-12-31 09:00:00 NR -12.8227 140.480 main 121 110 ______P__PP___ -1 -12.2291 140.592 -12.1808 139.804 TC -13.4164 140.369 7 4 88
1913361S13142 1914 63 SP EA NOT_NAMED 1913-12-31 11:00:00 NR -12.8135 140.602 main 110 110 ______P__PO___ -1 -12.2271 140.604 -12.1799 139.664 TC -13.4000 140.600 7 3 85
1913361S13142 1914 63 SP EA NOT_NAMED 1913-12-31 12:00:00 NR -12.8096 140.650 main 110 89 ______P__PP___ -1 -12.2245 140.601 -12.1801 139.590 TC -13.3891 140.709 7 2 80
1913361S13142 1914 63 SP EA NOT_NAMED 1913-12-31 15:00:00 NR -12.7860 140.770 main 89 87 ______P__PP___ -1 -12.2096 140.549 -12.1835 139.354 TC -13.3480 141.011 7 2 72
1913361S13142 1914 63 SP EA NOT_NAMED 1913-12-31 18:00:00 NR -12.7464 140.846 main 87 76 ______P__PP___ -1 -12.1818 140.420 -12.1918 139.098 TC -13.2970 141.283 7 1 47
1913361S13142 1914 63 SP EA NOT_NAMED 1913-12-31 21:00:00 NR -12.6928 140.869 main 76 76 ______P__PP___ -1 -12.1386 140.202 -12.2055 138.824 TC -13.2398 141.536 7 3 327
1913361S13142 1914 63 SP EA NOT_NAMED 1913-12-31 23:00:00 NR -12.5714 140.729 bom main 97 97 ______O__PO___ -1 -12.1000 140.000 -12.2181 138.632 TC -13.2000 141.700 7 9 305
1913361S13142 1914 63 SP EA NOT_NAMED 1914-01-01 00:00:00 NR -12.4458 140.514 main 121 121 ______P__P____ -1 -12.0777 139.880 -12.2255 138.533 TC 7 12 295
1913361S13142 1914 63 SP EA NOT_NAMED 1914-01-01 03:00:00 NR -12.2325 139.967 main 179 179 ______P__P____ -1 -12.0096 139.456 -12.2525 138.227 TC 7 16 287
1913361S13142 1914 63 SP EA NOT_NAMED 1914-01-01 06:00:00 NR -11.9653 138.952 main 220 155 ______P__P____ -1 -11.9653 138.952 -12.2873 137.908 TC 7 16 279
1913361S13142 1914 63 SP EA NOT_NAMED 1914-01-01 09:00:00 NR -11.9776 138.394 main 155 134 ______P__P____ -1 -11.9776 138.394 -12.3305 137.577 TC 7 11 267
1913361S13142 1914 63 SP EA NOT_NAMED 1914-01-01 10:00:00 NR -12.0000 138.200 bom main 134 113 ______O__P____ -1 -12.0000 138.200 -12.3469 137.464 TC 7 12 261
1913361S13142 1914 63 SP EA NOT_NAMED 1914-01-01 11:00:00 NR -12.0353 138.002 main 113 89 ______P__P____ -1 -12.0353 138.002 -12.3643 137.350 TC 12 259
1913361S13142 1914 63 SP EA NOT_NAMED 1914-01-01 12:00:00 NR -12.0792 137.800 main 89 24 ______P__P____ -1 -12.0792 137.800 -12.3829 137.236 TC 12 255
1913361S13142 1914 63 SP EA NOT_NAMED 1914-01-01 15:00:00 NR -12.2421 137.192 main 24 0 ______P__P____ -1 -12.2421 137.192 -12.4453 136.886 TC 12 254
1913361S13142 1914 63 SP EA NOT_NAMED 1914-01-01 16:00:00 NR -12.3000 137.000 bom main 0 0 ______O__P____ -1 -12.3000 137.000 -12.4684 136.767 TC 11 253
1913361S13142 1914 63 SP EA NOT_NAMED 1914-01-01 18:00:00 NR -12.4053 136.648 main 0 0 ______P__P____ -1 -12.4053 136.648 -12.5184 136.529 TC 10 252
1913361S13142 1914 63 SP EA NOT_NAMED 1914-01-01 21:00:00 NR -12.5667 136.169 main 0 0 ______P__P____ -1 -12.5667 136.169 -12.6031 136.166 TC 10 251
1913361S13142 1914 63 SP EA NOT_NAMED 1914-01-01 23:00:00 NR -12.6736 135.872 main 0 0 ______P__P____ -1 -12.6736 135.872 -12.6663 135.922 TC 9 250
1913361S13142 1914 63 SP EA NOT_NAMED 1914-01-01 23:30:00 NR -12.7000 135.800 996 bom main 0 0 ______O__P____ -1 -12.7000 135.800 996 4 -12.6830 135.861 TC 8 250
1913361S13142 1914 63 SP EA NOT_NAMED 1914-01-02 00:00:00 TS -12.7212 135.738 main 0 0 ______P__O____ -1 -12.7264 135.723 -12.7000 135.800 TC 35 996 9 251
1913361S13142 1914 63 SP EA NOT_NAMED 1914-01-02 03:00:00 TS -12.8649 135.315 main 0 0 ______P__P____ -1 -12.8841 135.268 -12.8264 135.409 TC 9 251
1913361S13142 1914 63 SI WA NOT_NAMED 1914-01-02 06:00:00 TS -13.0070 134.907 main 0 0 ______P__P____ -1 -13.0389 134.832 -12.9646 135.007 TC 8 250
1913361S13142 1914 63 SI WA NOT_NAMED 1914-01-02 09:00:00 TS -13.1497 134.510 main 0 0 ______P__P____ -1 -13.1891 134.419 -13.1104 134.602 TC 8 250
1913361S13142 1914 63 SI WA NOT_NAMED 1914-01-02 11:00:00 TS -13.2477 134.244 main 0 0 ______P__P____ -1 -13.2859 134.156 -13.2095 134.333 TC 8 249
1913361S13142 1914 63 SI WA NOT_NAMED 1914-01-02 12:00:00 TS -13.2962 134.115 main 0 0 ______P__P____ -1 -13.3332 134.029 -13.2592 134.200 TC 8 249
1913361S13142 1914 63 SI WA NOT_NAMED 1914-01-02 15:00:00 TS -13.4382 133.738 main 0 0 ______P__P____ -1 -13.4696 133.665 -13.4069 133.812 TC 8 249
1913361S13142 1914 63 SI WA NOT_NAMED 1914-01-02 18:00:00 TS -13.5728 133.387 main 0 0 ______P__P____ -1 -13.5966 133.331 -13.5490 133.443 TC 7 248
1913361S13142 1914 63 SI WA NOT_NAMED 1914-01-02 21:00:00 TS -13.6971 133.065 main 0 0 ______P__P____ -1 -13.7127 133.027 -13.6815 133.103 TC 7 248
1913361S13142 1914 63 SI WA NOT_NAMED 1914-01-02 23:00:00 TS -13.7728 132.870 main 0 0 ______P__P____ -1 -13.7833 132.844 -13.7623 132.896 TC 6 248
1913361S13142 1914 63 SI WA NOT_NAMED 1914-01-02 23:30:00 TS -13.7907 132.824 bom main 0 0 ______O__P____ -1 -13.8000 132.800 -13.7814 132.848 TC 6 249
1913361S13142 1914 63 SI WA NOT_NAMED 1914-01-03 00:00:00 TS -13.8072 132.780 main 0 0 ______P__O____ -1 -13.8144 132.760 -13.8000 132.800 TC 5 250
1913361S13142 1914 63 SI WA NOT_NAMED 1914-01-03 03:00:00 TS -13.8857 132.560 main 0 0 ______P__P____ -1 -13.8916 132.544 -13.8798 132.577 TC 4 250
1913361S13142 1914 63 SI WA NOT_NAMED 1914-01-03 06:00:00 TS -13.9510 132.378 main 0 0 ______P__P____ -1 -13.9560 132.364 -13.9460 132.392 TC 3 249
1913361S13142 1914 63 SI WA NOT_NAMED 1914-01-03 09:00:00 TS -14.0074 132.223 main 0 0 ______P__P____ -1 -14.0119 132.211 -14.0030 132.235 TC 3 249
1913361S13142 1914 63 SI WA NOT_NAMED 1914-01-03 11:00:00 TS -14.0423 132.130 main 0 0 ______P__P____ -1 -14.0466 132.118 -14.0380 132.141 TC 3 249
1913361S13142 1914 63 SI WA NOT_NAMED 1914-01-03 12:00:00 TS -14.0593 132.084 main 0 0 ______P__P____ -1 -14.0636 132.073 -14.0551 132.096 TC 3 248
1913361S13142 1914 63 SI WA NOT_NAMED 1914-01-03 15:00:00 TS -14.1110 131.952 main 0 0 ______P__P____ -1 -14.1154 131.941 -14.1066 131.963 TC 3 248
1913361S13142 1914 63 SI WA NOT_NAMED 1914-01-03 18:00:00 TS -14.1667 131.815 main 0 0 ______P__P____ -1 -14.1716 131.803 -14.1618 131.826 TC 3 247
1913361S13142 1914 63 SI WA NOT_NAMED 1914-01-03 21:00:00 TS -14.2306 131.662 main 0 0 ______P__P____ -1 -14.2364 131.648 -14.2248 131.676 TC 3 246
1913361S13142 1914 63 SI WA NOT_NAMED 1914-01-03 23:00:00 TS -14.2799 131.547 main 0 0 ______P__P____ -1 -14.2865 131.531 -14.2733 131.562 TC 4 247
1913361S13142 1914 63 SI WA NOT_NAMED 1914-01-03 23:30:00 TS -14.2932 131.516 bom main 0 0 ______O__P____ -1 -14.3000 131.500 -14.2865 131.531 TC 4 241
1913361S13142 1914 63 SI WA NOT_NAMED 1914-01-04 00:00:00 TS -14.3070 131.484 main 0 0 ______P__O____ -1 -14.3140 131.468 -14.3000 131.500 TC 4 246
1913361S13142 1914 63 SI WA NOT_NAMED 1914-01-04 03:00:00 TS -14.3986 131.272 main 0 0 ______P__P____ -1 -14.4069 131.253 -14.3904 131.291 TC 5 246
1913361S13142 1914 63 SI WA NOT_NAMED 1914-01-04 06:00:00 TS -14.5042 131.030 main 0 0 ______P__P____ -1 -14.5135 131.008 -14.4949 131.051 TC 5 246
1913361S13142 1914 63 SI WA NOT_NAMED 1914-01-04 09:00:00 TS -14.6216 130.761 main 0 0 ______P__P____ -1 -14.6319 130.738 -14.6114 130.784 TC 6 246
1913361S13142 1914 63 SI WA NOT_NAMED 1914-01-04 11:00:00 TS -14.7054 130.569 main 0 0 ______P__P____ -1 -14.7162 130.545 -14.6947 130.594 TC 6 246
1913361S13142 1914 63 SI WA NOT_NAMED 1914-01-04 12:00:00 TS -14.7488 130.470 main 0 0 ______P__P____ -1 -14.7597 130.445 -14.7378 130.495 TC 7 246
1913361S13142 1914 63 SI WA NOT_NAMED 1914-01-04 15:00:00 TS -14.8835 130.161 main 0 0 ______P__P____ -1 -14.8949 130.135 -14.8720 130.187 TC 7 246
1913361S13142 1914 63 SI WA NOT_NAMED 1914-01-04 18:00:00 TS -15.0236 129.839 main 0 0 ______P__P____ -1 -15.0355 129.811 -15.0118 129.866 TC 7 246
1913361S13142 1914 63 SI WA NOT_NAMED 1914-01-04 21:00:00 TS -15.1655 129.512 main 0 0 ______P__P____ -1 -15.1792 129.480 -15.1551 129.535 TC 7 246
1913361S13142 1914 63 SI WA NOT_NAMED 1914-01-04 23:00:00 TS -15.2613 129.290 main 0 0 ______P__P____ -1 -15.2758 129.256 -15.2517 129.312 TC 7 246
1913361S13142 1914 63 SI WA NOT_NAMED 1914-01-04 23:30:00 TS -15.2839 129.237 bom main 0 0 ______O__P____ -1 -15.3000 129.200 -15.2758 129.256 TC 6 246
1913361S13142 1914 63 SI WA NOT_NAMED 1914-01-05 00:00:00 TS -15.3000 129.200 main 0 _________O____ -1 -15.3000 129.200 TC 5 246

デジタル台風データ・検索

IBTrACS Databaseについて

本データベースは、米国NOAAが公開する1842年以降の世界の熱帯低気圧のベストトラックデータアーカイブInternational Best Track Archive for Climate Stewardship (IBTrACS)を、ウェブで閲覧しやすい形式に変換したものです。

最終更新日:2021-10-19